Aviation Digital Data Service (ADDS)

Output produced by METARs form (1313 UTC 07 July 2015)
found at http://aviationweather.gov/adds/metars/
 
KART 071128Z 0712/0812 18008KT P6SM SCT045 
     FM072200 22010G18KT P6SM VCSH BKN200 
     FM072300 22007KT 4SM SHRA VCTS BKN090CB 
     FM080100 24008KT 3SM -TSRA OVC025CB 
     FM080300 24008KT 3SM -SHRA OVC030 
     FM080600 26007KT 6SM BR OVC025